Palestine, Ohio
Current Conditions -  °F | °C
As of 10:56 AM on Sunday 25 Jan 2015 (Local Time) from KDAY Reporting Station
Light Rain Light Rain  
Wind Chill: 31°   Ceiling: 3200
Heat Index: 36°   Visibility: 3mi
Dew Point: 33°   Wind: 6mph
Humidity: 89%   Direction: 160°SSE
Pressure: 29.76"   Gusts: NA
Location:  40.05°N, 84.74°W
Report Text: KDAY 251556Z 16005KT 3SM -RA BR SCT029 BKN032 OVC036 02/01 A2976 RMK AO2 RAE20B41SNB20E41 SLP084 P0000 T00220006
Loading
Personal Weather Stations






























Interactive Weather Map New forecast layout! Learn more

10-Day Weather Forecast

Advertisements
Track Severe Weather on mobile